Time;durP1;ratioP1;P1;durP2;ratioP2;P2;SDS_P1;SDS_P2;PMS_P1;PMS_P2;Temp;Humidity;BMP_temperature;BMP_pressure;BME280_temperature;BME280_humidity;BME280_pressure;Samples;Min_cycle;Max_cycle;Signal;HPM_P1;HPM_P2
2022/08/07 00:01:07;;;;;;;1.77;1.50;;;15.10;99.90;;;;;;5004143;28;20500;-77
2022/08/07 00:03:34;;;;;;;2.03;1.53;;;15.10;99.90;;;;;;5008379;28;20505;-77
2022/08/07 00:06:02;;;;;;;1.67;1.53;;;15.00;99.90;;;;;;5005225;28;20446;-76
2022/08/07 00:08:29;;;;;;;4.70;1.90;;;15.00;99.90;;;;;;5002157;28;20504;-77
2022/08/07 00:10:56;;;;;;;1.80;1.70;;;14.90;99.90;;;;;;5006464;28;20579;-77
2022/08/07 00:13:22;;;;;;;2.80;1.73;;;14.90;99.90;;;;;;4996167;28;20509;-77
2022/08/07 00:15:51;;;;;;;3.20;1.60;;;14.80;99.90;;;;;;4996292;28;20447;-77
2022/08/07 00:18:19;;;;;;;3.00;1.70;;;14.80;99.90;;;;;;5002084;28;20511;-77
2022/08/07 00:20:48;;;;;;;2.07;1.43;;;14.80;99.90;;;;;;5002074;28;21002;-77
2022/08/07 00:23:16;;;;;;;1.70;1.60;;;14.70;99.90;;;;;;4997771;28;20464;-77
2022/08/07 00:25:42;;;;;;;1.60;1.50;;;14.70;99.90;;;;;;5000447;28;20552;-77
2022/08/07 00:28:09;;;;;;;1.60;1.50;;;14.70;99.90;;;;;;5000350;28;20505;-77
2022/08/07 00:30:36;;;;;;;2.80;1.50;;;14.60;99.90;;;;;;5006348;28;21071;-77
2022/08/07 00:33:02;;;;;;;1.80;1.53;;;14.60;99.90;;;;;;4996851;28;20875;-77
2022/08/07 00:35:29;;;;;;;2.53;1.90;;;14.50;99.90;;;;;;4998262;28;20501;-77
2022/08/07 00:37:56;;;;;;;1.67;1.57;;;14.50;99.90;;;;;;5001386;28;20455;-77
2022/08/07 00:40:24;;;;;;;2.17;1.90;;;14.50;99.90;;;;;;4997155;28;20549;-77
2022/08/07 00:42:50;;;;;;;1.83;1.70;;;14.50;99.90;;;;;;4995444;28;20459;-77
2022/08/07 00:45:17;;;;;;;2.80;1.83;;;14.40;99.90;;;;;;4996925;28;20451;-76
2022/08/07 00:47:44;;;;;;;1.50;1.40;;;14.40;99.90;;;;;;4995766;28;22103;-76
2022/08/07 00:50:10;;;;;;;4.20;1.70;;;14.40;99.90;;;;;;4995450;28;20482;-77
2022/08/07 00:52:37;;;;;;;2.60;1.60;;;14.40;99.90;;;;;;5005899;28;20450;-77
2022/08/07 00:55:05;;;;;;;2.80;1.60;;;14.40;99.90;;;;;;5000269;28;20541;-77
2022/08/07 00:57:33;;;;;;;1.70;1.60;;;14.30;99.90;;;;;;5002285;28;20505;-77
2022/08/07 01:00:00;;;;;;;1.70;1.53;;;14.30;99.90;;;;;;4996098;28;20482;-77
2022/08/07 01:02:27;;;;;;;1.60;1.50;;;14.20;99.90;;;;;;4995652;28;20467;-77
2022/08/07 01:04:53;;;;;;;2.60;1.70;;;14.20;99.90;;;;;;5010447;28;20470;-77
2022/08/07 01:07:22;;;;;;;1.87;1.77;;;14.20;99.90;;;;;;4995439;28;20459;-76
2022/08/07 01:09:48;;;;;;;6.13;1.80;;;14.20;99.90;;;;;;5003747;28;21021;-77
2022/08/07 01:12:16;;;;;;;1.70;1.60;;;14.20;99.90;;;;;;4997289;28;20475;-76
2022/08/07 01:14:45;;;;;;;1.70;1.60;;;14.10;99.90;;;;;;5002540;28;20455;-77
2022/08/07 01:17:12;;;;;;;4.43;1.80;;;14.10;99.90;;;;;;4999096;28;20509;-77
2022/08/07 01:19:40;;;;;;;1.50;1.40;;;14.00;99.90;;;;;;5003356;28;20483;-77
2022/08/07 01:22:08;;;;;;;1.60;1.50;;;14.00;99.90;;;;;;5006321;28;20986;-76
2022/08/07 01:24:35;;;;;;;4.60;1.70;;;14.00;99.90;;;;;;5000073;28;20453;-77
2022/08/07 01:27:02;;;;;;;2.37;1.70;;;14.00;99.90;;;;;;4998212;28;21011;-77
2022/08/07 01:29:30;;;;;;;1.60;1.50;;;14.00;99.90;;;;;;5001215;28;20508;-77
2022/08/07 01:31:57;;;;;;;1.40;1.30;;;14.00;99.90;;;;;;4998506;28;20475;-77
2022/08/07 01:34:25;;;;;;;1.90;1.70;;;14.00;99.90;;;;;;4997025;28;20458;-76
2022/08/07 01:36:52;;;;;;;1.80;1.70;;;14.00;99.90;;;;;;4995598;28;20451;-77
2022/08/07 01:39:20;;;;;;;1.70;1.60;;;14.00;99.90;;;;;;4999884;28;21025;-77
2022/08/07 01:41:47;;;;;;;4.93;1.80;;;13.90;99.90;;;;;;5001246;28;20544;-76
2022/08/07 01:44:14;;;;;;;2.03;1.60;;;13.90;99.90;;;;;;5002030;28;20451;-76
2022/08/07 01:46:41;;;;;;;2.40;1.50;;;13.80;99.90;;;;;;4995868;28;20505;-76
2022/08/07 01:49:08;;;;;;;2.23;1.80;;;13.80;99.90;;;;;;4994508;28;20518;-77
2022/08/07 01:51:36;;;;;;;1.60;1.50;;;13.70;99.90;;;;;;5001180;28;20466;-77
2022/08/07 01:54:06;;;;;;;1.70;1.50;;;13.70;99.90;;;;;;5007450;28;20477;-76
2022/08/07 01:56:43;;;;;;;2.40;2.20;;;13.70;99.90;;;;;;4998716;28;20455;-76
2022/08/07 01:59:19;;;;;;;1.70;1.60;;;13.70;99.90;;;;;;5004262;28;20870;-77
2022/08/07 02:01:52;;;;;;;2.30;1.70;;;13.70;99.90;;;;;;4994992;28;20656;-78
2022/08/07 02:04:26;;;;;;;3.10;1.80;;;13.60;99.90;;;;;;4995534;28;20868;-77
2022/08/07 02:06:55;;;;;;;1.63;1.53;;;13.60;99.90;;;;;;4995893;28;21215;-76
2022/08/07 02:09:23;;;;;;;1.77;1.67;;;13.60;99.90;;;;;;5002319;28;20856;-77
2022/08/07 02:11:52;;;;;;;7.70;1.80;;;13.60;99.90;;;;;;4998620;28;20467;-77
2022/08/07 02:14:20;;;;;;;1.60;1.50;;;13.50;99.90;;;;;;4999336;28;20448;-76
2022/08/07 02:16:49;;;;;;;1.70;1.60;;;13.50;99.90;;;;;;5001920;28;20477;-77
2022/08/07 02:19:17;;;;;;;2.40;1.83;;;13.40;99.90;;;;;;4998884;28;20505;-76
2022/08/07 02:21:45;;;;;;;2.00;1.80;;;13.40;99.90;;;;;;5005000;28;20487;-76
2022/08/07 02:24:13;;;;;;;1.73;1.63;;;13.30;99.90;;;;;;4995177;28;20498;-76
2022/08/07 02:26:41;;;;;;;1.57;1.47;;;13.30;99.90;;;;;;4998794;28;20872;-77
2022/08/07 02:29:10;;;;;;;1.63;1.53;;;13.30;99.90;;;;;;5000012;28;20467;-77
2022/08/07 02:31:38;;;;;;;1.80;1.50;;;13.30;99.90;;;;;;5004718;28;20475;-77
2022/08/07 02:34:06;;;;;;;5.00;1.70;;;13.30;99.90;;;;;;5004104;28;20481;-77
2022/08/07 02:36:33;;;;;;;1.77;1.67;;;13.20;99.90;;;;;;4998112;28;20454;-77
2022/08/07 02:39:03;;;;;;;1.70;1.60;;;13.20;99.90;;;;;;5003299;28;20455;-77
2022/08/07 02:41:30;;;;;;;1.93;1.83;;;13.20;99.90;;;;;;4999296;28;20488;-77
2022/08/07 02:44:00;;;;;;;1.60;1.50;;;13.10;99.90;;;;;;4994743;28;20459;-76
2022/08/07 02:46:30;;;;;;;1.73;1.63;;;13.10;99.90;;;;;;4999783;28;20450;-77
2022/08/07 02:48:57;;;;;;;5.63;1.97;;;13.10;99.90;;;;;;5000309;28;20451;-77
2022/08/07 02:51:26;;;;;;;1.53;1.43;;;13.10;99.90;;;;;;5003310;28;20474;-76
2022/08/07 02:53:54;;;;;;;1.70;1.53;;;13.10;99.90;;;;;;5005424;28;20505;-76
2022/08/07 02:56:22;;;;;;;1.77;1.67;;;13.10;99.90;;;;;;5001288;28;20450;-76
2022/08/07 02:58:51;;;;;;;2.40;2.00;;;13.10;99.90;;;;;;4998519;28;20447;-77
2022/08/07 03:01:21;;;;;;;7.80;1.60;;;13.10;99.90;;;;;;5001163;28;20540;-77
2022/08/07 03:03:50;;;;;;;1.70;1.60;;;13.10;99.90;;;;;;5005066;28;20455;-77
2022/08/07 03:06:18;;;;;;;1.50;1.40;;;13.10;99.90;;;;;;5003029;28;20932;-76
2022/08/07 03:08:46;;;;;;;2.43;1.70;;;13.10;99.90;;;;;;4996466;28;20974;-77
2022/08/07 03:11:13;;;;;;;2.00;1.80;;;13.10;99.90;;;;;;4995957;28;20493;-77
2022/08/07 03:13:41;;;;;;;2.03;1.60;;;13.10;99.90;;;;;;4995064;28;20467;-77
2022/08/07 03:16:08;;;;;;;1.80;1.70;;;13.00;99.90;;;;;;4998730;28;20578;-76
2022/08/07 03:18:34;;;;;;;1.97;1.80;;;13.00;99.90;;;;;;4999973;28;20454;-77
2022/08/07 03:21:03;;;;;;;2.90;1.73;;;13.00;99.90;;;;;;5000716;28;20486;-77
2022/08/07 03:23:31;;;;;;;1.57;1.47;;;13.00;99.90;;;;;;4999386;28;20454;-77
2022/08/07 03:26:01;;;;;;;1.67;1.57;;;13.00;99.90;;;;;;5000998;28;20447;-76
2022/08/07 03:28:30;;;;;;;2.20;1.57;;;13.00;99.90;;;;;;5001789;28;20462;-76
2022/08/07 03:33:40;;;;;;;1.70;1.60;;;13.00;99.90;;;;;;5000403;28;20432;-76
2022/08/07 03:36:10;;;;;;;1.60;1.50;;;12.90;99.90;;;;;;5003148;28;20505;-76
2022/08/07 03:38:39;;;;;;;3.20;1.60;;;12.90;99.90;;;;;;5003125;28;20900;-76
2022/08/07 03:41:06;;;;;;;2.80;1.70;;;12.90;99.90;;;;;;5003195;28;20478;-76
2022/08/07 03:43:34;;;;;;;2.10;1.70;;;12.80;99.90;;;;;;5001110;28;20496;-76
2022/08/07 03:46:02;;;;;;;1.77;1.67;;;12.80;99.90;;;;;;4999982;28;20951;-76
2022/08/07 03:48:29;;;;;;;1.67;1.57;;;12.80;99.90;;;;;;5005899;28;20508;-77
2022/08/07 03:50:56;;;;;;;3.00;1.60;;;12.70;99.90;;;;;;5000747;28;20471;-76
2022/08/07 03:53:25;;;;;;;1.80;1.70;;;12.70;99.90;;;;;;5001329;28;20867;-77
2022/08/07 03:55:53;;;;;;;1.73;1.63;;;12.70;99.90;;;;;;5005216;28;20456;-76
2022/08/07 03:58:21;;;;;;;1.80;1.70;;;12.70;99.90;;;;;;5005350;28;20498;-76
2022/08/07 04:00:49;;;;;;;1.83;1.60;;;12.70;99.90;;;;;;4998456;28;20545;-76
2022/08/07 04:03:16;;;;;;;2.80;1.73;;;12.70;99.90;;;;;;5002588;28;20502;-76
2022/08/07 04:05:43;;;;;;;3.53;1.80;;;12.70;99.90;;;;;;5003895;28;20459;-76
2022/08/07 04:08:11;;;;;;;2.23;1.90;;;12.70;99.90;;;;;;5001324;28;20506;-76
2022/08/07 04:10:40;;;;;;;2.03;1.70;;;12.60;99.90;;;;;;4998766;28;20518;-76
2022/08/07 04:13:07;;;;;;;1.80;1.67;;;12.60;99.90;;;;;;5003128;28;20536;-76
2022/08/07 04:15:34;;;;;;;1.67;1.57;;;12.60;99.90;;;;;;5005756;28;20481;-76
2022/08/07 04:18:01;;;;;;;1.70;1.60;;;12.60;99.90;;;;;;5003322;28;20502;-76
2022/08/07 04:20:28;;;;;;;2.10;1.70;;;12.60;99.90;;;;;;5001233;28;20491;-76
2022/08/07 04:22:57;;;;;;;2.00;1.40;;;12.50;99.90;;;;;;5002700;28;20451;-76
2022/08/07 04:25:24;;;;;;;2.13;1.77;;;12.60;99.90;;;;;;5001646;28;20505;-76
2022/08/07 04:27:53;;;;;;;2.13;1.70;;;12.60;99.90;;;;;;5004496;28;20514;-73
2022/08/07 04:30:19;;;;;;;1.80;1.70;;;12.70;99.90;;;;;;5001958;28;20450;-73
2022/08/07 04:32:47;;;;;;;2.03;1.80;;;12.80;99.90;;;;;;5000247;28;20506;-73
2022/08/07 04:35:13;;;;;;;3.47;1.80;;;13.00;99.90;;;;;;5003773;28;20455;-73
2022/08/07 04:37:40;;;;;;;1.80;1.70;;;13.00;99.90;;;;;;5002150;28;20467;-73
2022/08/07 04:40:08;;;;;;;2.53;1.60;;;13.20;99.90;;;;;;5003176;28;20456;-73
2022/08/07 04:42:35;;;;;;;1.90;1.80;;;13.30;99.90;;;;;;5004607;28;20486;-73
2022/08/07 04:45:06;;;;;;;5.30;1.80;;;13.40;99.90;;;;;;5002857;28;20867;-73
2022/08/07 04:47:38;;;;;;;5.10;1.50;;;13.50;99.90;;;;;;5004329;28;20455;-74
2022/08/07 04:50:10;;;;;;;4.57;1.80;;;13.60;99.90;;;;;;5001990;28;20484;-74
2022/08/07 04:52:41;;;;;;;1.77;1.67;;;13.60;99.90;;;;;;4999108;28;20470;-74
2022/08/07 04:55:18;;;;;;;1.80;1.57;;;13.60;99.90;;;;;;5001838;28;20516;-73
2022/08/07 04:57:51;;;;;;;3.23;1.80;;;13.60;99.90;;;;;;4998871;28;20459;-72
2022/08/07 05:00:23;;;;;;;2.80;2.10;;;13.60;99.90;;;;;;5003324;28;20466;-73
2022/08/07 05:03:04;;;;;;;1.70;1.60;;;13.70;99.90;;;;;;5002714;28;20458;-73
2022/08/07 05:05:35;;;;;;;6.20;1.77;;;13.80;99.90;;;;;;4997923;28;20451;-73
2022/08/07 05:08:07;;;;;;;3.27;1.70;;;13.90;99.90;;;;;;5003617;28;20553;-73
2022/08/07 05:10:39;;;;;;;2.57;1.53;;;14.00;99.90;;;;;;5002200;28;20529;-72
2022/08/07 05:13:09;;;;;;;2.63;1.63;;;14.10;99.90;;;;;;5003923;28;20516;-73
2022/08/07 05:15:40;;;;;;;2.27;1.60;;;14.10;99.90;;;;;;4999506;28;20447;-73
2022/08/07 05:18:09;;;;;;;1.50;1.40;;;14.20;99.90;;;;;;4997630;28;20455;-73
2022/08/07 05:20:39;;;;;;;2.50;1.40;;;14.30;99.90;;;;;;4994782;28;20482;-73
2022/08/07 05:23:11;;;;;;;2.00;1.90;;;14.40;99.90;;;;;;5001006;28;20521;-73
2022/08/07 05:25:40;;;;;;;2.40;2.20;;;14.40;99.90;;;;;;4995582;28;20455;-73
2022/08/07 05:28:07;;;;;;;1.50;1.40;;;14.60;99.90;;;;;;4999341;28;20482;-73
2022/08/07 05:30:36;;;;;;;2.13;1.70;;;14.70;99.90;;;;;;4994553;28;20471;-75
2022/08/07 05:33:04;;;;;;;2.07;1.60;;;14.80;99.90;;;;;;4995223;28;21179;-75
2022/08/07 05:35:33;;;;;;;1.67;1.57;;;14.90;99.90;;;;;;5009785;28;20446;-75
2022/08/07 05:38:01;;;;;;;1.70;1.60;;;15.10;99.90;;;;;;4993506;28;20487;-75
2022/08/07 05:40:29;;;;;;;2.07;1.40;;;15.40;99.90;;;;;;4997797;28;20498;-75
2022/08/07 05:42:56;;;;;;;1.60;1.50;;;15.60;99.90;;;;;;5000123;28;20487;-75
2022/08/07 05:45:24;;;;;;;2.77;1.67;;;15.80;99.90;;;;;;5009883;28;20526;-75
2022/08/07 05:47:52;;;;;;;1.60;1.50;;;15.80;99.90;;;;;;4994957;28;20947;-75
2022/08/07 05:50:21;;;;;;;1.97;1.70;;;15.90;99.90;;;;;;4993289;28;20842;-75
2022/08/07 05:52:48;;;;;;;1.70;1.60;;;16.00;99.90;;;;;;4993160;28;20447;-75
2022/08/07 05:55:14;;;;;;;1.73;1.63;;;16.20;99.90;;;;;;5005832;28;20425;-75
2022/08/07 05:57:42;;;;;;;1.70;1.60;;;16.40;99.90;;;;;;4997303;28;20942;-75
2022/08/07 06:00:10;;;;;;;1.60;1.50;;;16.50;99.90;;;;;;4997783;28;20458;-75
2022/08/07 06:02:38;;;;;;;1.53;1.43;;;16.50;99.90;;;;;;5005520;28;20985;-75
2022/08/07 06:05:08;;;;;;;1.47;1.37;;;16.60;99.90;;;;;;4995536;28;20485;-76
2022/08/07 06:07:36;;;;;;;2.43;1.30;;;16.70;99.90;;;;;;4995990;28;20443;-75
2022/08/07 06:10:04;;;;;;;1.83;1.63;;;16.90;99.90;;;;;;4999278;28;20454;-76
2022/08/07 06:12:31;;;;;;;2.23;1.77;;;17.00;99.90;;;;;;5005618;28;20476;-75
2022/08/07 06:14:58;;;;;;;1.60;1.50;;;17.10;99.90;;;;;;5000064;28;20426;-76
2022/08/07 06:17:26;;;;;;;1.60;1.50;;;17.40;99.90;;;;;;5008743;28;20512;-75
2022/08/07 06:19:53;;;;;;;1.97;1.33;;;17.70;99.90;;;;;;4999381;28;20440;-75
2022/08/07 06:22:20;;;;;;;2.57;2.10;;;18.00;99.90;;;;;;5000237;28;21122;-75
2022/08/07 06:24:48;;;;;;;2.17;1.70;;;18.20;99.90;;;;;;4997642;28;20447;-75
2022/08/07 06:27:21;;;;;;;1.93;1.60;;;18.20;99.90;;;;;;4992146;28;20459;-72
2022/08/07 06:29:48;;;;;;;2.50;1.80;;;18.30;99.90;;;;;;5002151;28;20436;-72
2022/08/07 06:32:14;;;;;;;2.60;1.30;;;18.30;99.90;;;;;;4999673;28;20492;-73
2022/08/07 06:34:41;;;;;;;1.70;1.60;;;18.50;99.90;;;;;;4998223;28;20430;-72
2022/08/07 06:37:08;;;;;;;1.80;1.70;;;18.60;99.90;;;;;;5005842;28;20495;-72
2022/08/07 06:39:34;;;;;;;1.70;1.57;;;18.80;99.90;;;;;;4998908;28;20833;-73
2022/08/07 06:42:06;;;;;;;2.00;1.70;;;18.90;99.90;;;;;;5000005;28;21241;-73
2022/08/07 06:44:34;;;;;;;2.70;1.40;;;19.00;99.90;;;;;;4999026;28;20454;-74
2022/08/07 06:47:01;;;;;;;2.70;1.50;;;19.10;99.90;;;;;;4998945;28;20421;-73
2022/08/07 06:49:28;;;;;;;1.57;1.47;;;19.30;99.90;;;;;;4999318;28;21153;-74
2022/08/07 06:51:56;;;;;;;1.63;1.53;;;19.40;99.90;;;;;;4999990;28;20471;-73
2022/08/07 06:54:26;;;;;;;5.03;1.57;;;19.50;99.90;;;;;;4999132;28;20453;-73
2022/08/07 06:56:54;;;;;;;1.53;1.40;;;19.60;99.90;;;;;;5002855;28;20440;-73
2022/08/07 06:59:26;;;;;;;3.77;1.60;;;19.70;99.90;;;;;;5003270;28;20437;-73
2022/08/07 07:01:55;;;;;;;2.63;1.40;;;19.80;99.90;;;;;;5002161;28;20494;-73
2022/08/07 07:04:21;;;;;;;2.60;1.50;;;19.80;99.90;;;;;;5005178;28;20451;-74
2022/08/07 07:06:48;;;;;;;7.27;1.50;;;20.00;99.90;;;;;;5000945;28;20459;-73
2022/08/07 07:09:20;;;;;;;1.43;1.33;;;20.10;99.90;;;;;;4999897;28;20520;-73
2022/08/07 07:12:00;;;;;;;2.17;1.37;;;20.20;99.90;;;;;;5002493;28;20469;-73
2022/08/07 07:14:32;;;;;;;3.17;1.57;;;20.20;99.90;;;;;;5003459;28;20966;-73
2022/08/07 07:17:04;;;;;;;5.93;3.57;;;20.30;99.90;;;;;;5003691;28;20450;-73
2022/08/07 07:19:35;;;;;;;4.83;3.63;;;20.40;99.90;;;;;;5005901;28;20512;-73
2022/08/07 07:22:02;;;;;;;1.50;1.30;;;20.50;99.90;;;;;;5002502;28;20481;-73
2022/08/07 07:24:30;;;;;;;1.67;1.50;;;20.70;99.90;;;;;;5003195;28;20488;-73
2022/08/07 07:26:59;;;;;;;2.03;1.83;;;20.80;99.90;;;;;;5006611;28;20504;-73
2022/08/07 07:29:31;;;;;;;2.60;1.53;;;21.00;99.90;;;;;;5000814;28;20506;-73
2022/08/07 07:32:02;;;;;;;1.50;1.40;;;21.00;99.90;;;;;;4999184;28;20454;-72
2022/08/07 07:34:30;;;;;;;3.83;1.20;;;21.20;99.90;;;;;;4999421;28;20509;-72
2022/08/07 07:37:01;;;;;;;2.07;1.30;;;21.40;99.90;;;;;;5007939;28;20442;-73
2022/08/07 07:39:29;;;;;;;1.53;1.40;;;21.50;99.90;;;;;;4999694;28;20873;-74
2022/08/07 07:41:57;;;;;;;1.40;1.20;;;21.60;99.90;;;;;;5002815;28;20490;-74
2022/08/07 07:44:26;;;;;;;1.50;1.23;;;21.70;99.90;;;;;;5004247;28;20462;-75
2022/08/07 07:46:55;;;;;;;1.43;1.33;;;21.90;99.90;;;;;;5005813;28;20466;-74
2022/08/07 07:49:24;;;;;;;4.23;1.33;;;22.10;99.90;;;;;;5000685;28;20516;-74
2022/08/07 07:51:52;;;;;;;1.30;1.20;;;22.30;99.90;;;;;;4999150;28;20833;-74
2022/08/07 07:54:20;;;;;;;2.37;1.60;;;22.50;99.90;;;;;;5005362;28;20455;-73
2022/08/07 07:56:49;;;;;;;1.60;1.40;;;22.50;99.90;;;;;;5001294;28;20498;-74
2022/08/07 07:59:18;;;;;;;4.20;1.33;;;22.60;99.90;;;;;;5001650;28;20480;-74
2022/08/07 08:01:47;;;;;;;1.73;1.30;;;22.70;99.90;;;;;;4997786;28;20491;-74
2022/08/07 08:04:17;;;;;;;2.67;1.23;;;22.80;99.90;;;;;;5000419;28;20520;-73
2022/08/07 08:06:45;;;;;;;1.87;1.23;;;23.00;99.90;;;;;;5009458;28;20462;-73
2022/08/07 08:09:14;;;;;;;1.27;1.17;;;23.10;99.90;;;;;;5018081;28;20450;-75
2022/08/07 08:11:41;;;;;;;1.20;1.10;;;23.30;99.90;;;;;;5017366;28;21036;-75
2022/08/07 08:14:08;;;;;;;1.40;1.13;;;23.50;99.90;;;;;;5018460;28;20453;-75
2022/08/07 08:16:39;;;;;;;3.60;1.10;;;23.80;99.90;;;;;;5017790;28;20454;-76
2022/08/07 08:19:09;;;;;;;2.80;1.20;;;23.90;99.70;;;;;;5017408;28;20493;-76
2022/08/07 08:27:14;;;;;;;1.03;0.93;;;24.40;99.10;;;;;;5018597;28;20441;-75
2022/08/07 08:29:43;;;;;;;5.90;1.23;;;24.60;98.50;;;;;;5018128;28;20560;-75
2022/08/07 08:32:12;;;;;;;2.90;1.20;;;24.60;98.10;;;;;;5017418;28;20477;-75
2022/08/07 08:34:41;;;;;;;2.13;1.60;;;24.80;98.20;;;;;;5016491;28;20461;-75
2022/08/07 08:37:12;;;;;;;1.30;1.20;;;25.00;97.50;;;;;;5010491;28;20481;-73
2022/08/07 08:39:40;;;;;;;2.57;1.30;;;25.30;97.70;;;;;;4997669;28;20455;-76
2022/08/07 08:42:17;;;;;;;4.30;1.10;;;25.40;97.00;;;;;;5000588;28;20487;-76
2022/08/07 08:44:52;;;;;;;1.20;1.07;;;25.50;96.90;;;;;;5005687;28;20452;-77
2022/08/07 08:47:26;;;;;;;1.20;1.10;;;25.60;96.70;;;;;;4999409;28;20519;-76
2022/08/07 08:50:08;;;;;;;1.63;1.10;;;25.90;96.10;;;;;;4994213;28;20534;-76
2022/08/07 08:52:44;;;;;;;2.13;1.00;;;26.00;95.10;;;;;;4996408;28;20447;-76
2022/08/07 08:55:19;;;;;;;2.17;1.23;;;26.10;95.20;;;;;;5004285;28;20462;-77
2022/08/07 08:57:58;;;;;;;1.33;1.13;;;26.20;95.20;;;;;;4998845;28;20450;-77
2022/08/07 09:00:30;;;;;;;3.13;1.00;;;26.30;94.90;;;;;;5005981;28;20446;-76
2022/08/07 09:03:00;;;;;;;2.90;0.90;;;26.30;93.90;;;;;;4996471;28;20491;-74
2022/08/07 09:05:34;;;;;;;3.07;1.00;;;26.40;92.60;;;;;;5004059;28;20509;-77
2022/08/07 09:08:17;;;;;;;1.80;1.20;;;26.20;92.50;;;;;;5001779;28;20537;-77
2022/08/07 09:10:51;;;;;;;1.60;1.10;;;26.20;93.40;;;;;;4996192;28;20881;-77
2022/08/07 09:13:36;;;;;;;3.30;1.10;;;26.30;93.30;;;;;;5004589;28;20450;-77
2022/08/07 09:16:08;;;;;;;2.17;1.10;;;26.30;92.70;;;;;;5002425;28;20849;-77
2022/08/07 09:19:06;;;;;;;2.30;1.27;;;26.60;92.60;;;;;;5004188;28;20462;-72
2022/08/07 09:21:36;;;;;;;1.10;1.00;;;26.70;91.90;;;;;;5001685;28;20462;-73
2022/08/07 09:24:16;;;;;;;1.30;1.00;;;26.80;91.30;;;;;;4998851;28;20482;-73
2022/08/07 09:26:52;;;;;;;1.10;1.00;;;26.70;90.50;;;;;;4998329;28;20454;-73
2022/08/07 09:29:26;;;;;;;1.50;0.97;;;26.70;90.50;;;;;;4995403;28;20451;-76
2022/08/07 09:32:04;;;;;;;1.00;0.77;;;26.70;90.70;;;;;;4996981;28;20485;-77
2022/08/07 09:34:44;;;;;;;2.60;1.20;;;26.60;90.30;;;;;;4998914;28;20475;-77
2022/08/07 09:37:20;;;;;;;4.90;0.90;;;26.60;90.10;;;;;;5000678;28;20520;-73
2022/08/07 09:40:01;;;;;;;1.23;1.13;;;26.90;90.00;;;;;;5005540;28;20453;-73
2022/08/07 09:42:40;;;;;;;3.63;1.10;;;27.00;87.90;;;;;;5001076;28;20491;-73
2022/08/07 09:45:14;;;;;;;1.20;1.10;;;26.90;89.30;;;;;;5007019;28;20516;-74
2022/08/07 09:47:50;;;;;;;1.70;1.30;;;26.90;89.20;;;;;;5002254;28;20450;-73
2022/08/07 09:50:29;;;;;;;4.27;1.33;;;27.00;88.10;;;;;;4999839;28;20530;-74
2022/08/07 09:53:01;;;;;;;1.30;1.10;;;26.80;87.60;;;;;;5000877;28;20450;-72
2022/08/07 09:55:48;;;;;;;1.87;1.00;;;26.70;87.50;;;;;;5006486;28;20467;-72
2022/08/07 09:58:41;;;;;;;2.23;1.00;;;26.80;85.90;;;;;;4994983;28;20447;-72
2022/08/07 10:01:23;;;;;;;1.87;1.10;;;26.90;86.10;;;;;;5005178;28;21176;-73
2022/08/07 10:04:13;;;;;;;3.33;1.00;;;26.90;84.80;;;;;;5004374;28;20486;-75
2022/08/07 10:06:58;;;;;;;5.23;1.40;;;27.00;87.40;;;;;;4995291;28;20513;-72
2022/08/07 10:10:13;;;;;;;1.20;1.10;;;27.20;84.70;;;;;;5002992;28;20450;-73
2022/08/07 10:13:09;;;;;;;3.20;1.10;;;27.40;86.60;;;;;;4933822;29;20438;-72
2022/08/07 10:15:54;;;;;;;1.00;0.90;;;27.10;82.00;;;;;;4998580;28;20451;-74
2022/08/07 10:18:33;;;;;;;2.40;1.00;;;26.90;84.10;;;;;;4994219;28;21046;-73
2022/08/07 10:21:15;;;;;;;1.10;1.00;;;27.10;85.90;;;;;;5005936;28;20477;-73
2022/08/07 10:24:13;;;;;;;2.90;1.00;;;27.40;86.10;;;;;;4997042;28;21078;-72
2022/08/07 10:26:51;;;;;;;1.10;0.83;;;27.80;82.40;;;;;;5004529;28;20958;-73
2022/08/07 10:29:54;;;;;;;1.30;1.20;;;27.90;83.90;;;;;;5006686;28;20473;-73
2022/08/07 10:32:33;;;;;;;3.33;1.13;;;28.20;81.20;;;;;;5005679;28;20516;-74
2022/08/07 10:35:15;;;;;;;2.60;1.10;;;27.90;79.50;;;;;;5005220;28;20507;-74
2022/08/07 10:37:53;;;;;;;4.80;1.10;;;27.40;80.60;;;;;;5008696;28;20461;-73
2022/08/07 10:40:25;;;;;;;1.37;1.00;;;27.50;82.20;;;;;;4997193;28;20505;-76
2022/08/07 10:43:00;;;;;;;3.50;1.00;;;27.90;81.80;;;;;;4999185;28;20491;-75
2022/08/07 10:45:36;;;;;;;2.23;1.00;;;28.10;79.20;;;;;;4999261;28;20447;-72
2022/08/07 10:48:16;;;;;;;1.73;0.90;;;28.10;78.10;;;;;;5003395;28;20446;-70
2022/08/07 10:50:46;;;;;;;2.93;1.27;;;27.70;79.10;;;;;;4999553;28;20521;-74
2022/08/07 10:53:22;;;;;;;5.47;1.10;;;27.60;79.40;;;;;;5007113;28;20458;-73
2022/08/07 10:55:55;;;;;;;3.77;1.10;;;27.50;80.80;;;;;;5000513;28;20523;-73
2022/08/07 10:58:43;;;;;;;1.90;1.20;;;27.50;78.80;;;;;;4998216;28;20501;-73
2022/08/07 11:01:47;;;;;;;2.20;0.90;;;27.60;80.00;;;;;;5007776;28;20471;-73
2022/08/07 11:04:24;;;;;;;1.53;1.03;;;27.80;79.50;;;;;;4995550;28;20537;-74
2022/08/07 11:07:01;;;;;;;1.63;1.07;;;27.80;78.40;;;;;;5008448;28;20450;-74
2022/08/07 11:09:34;;;;;;;2.20;1.00;;;28.00;80.50;;;;;;5003569;28;20446;-74
2022/08/07 11:12:06;;;;;;;2.33;1.10;;;28.40;80.70;;;;;;4998519;28;20890;-74
2022/08/07 11:14:39;;;;;;;2.30;1.13;;;28.80;80.40;;;;;;4997845;28;20682;-76
2022/08/07 11:17:14;;;;;;;1.67;0.97;;;29.00;77.00;;;;;;4995071;28;20451;-75
2022/08/07 11:19:48;;;;;;;1.10;0.90;;;28.70;76.60;;;;;;5007562;28;20878;-75
2022/08/07 11:22:22;;;;;;;1.27;0.87;;;28.30;76.00;;;;;;5006259;28;20485;-76
2022/08/07 11:24:53;;;;;;;2.40;1.00;;;27.80;76.30;;;;;;5004715;28;20450;-75
2022/08/07 11:27:30;;;;;;;2.07;1.30;;;27.40;78.60;;;;;;5000628;28;20443;-75
2022/08/07 11:30:01;;;;;;;1.20;0.97;;;27.50;78.90;;;;;;5001997;28;20469;-74
2022/08/07 11:32:36;;;;;;;3.33;1.37;;;27.70;79.30;;;;;;4997829;28;20520;-74
2022/08/07 11:35:07;;;;;;;1.60;1.10;;;28.10;80.50;;;;;;4998615;28;20549;-75
2022/08/07 11:37:50;;;;;;;4.33;1.00;;;28.60;79.70;;;;;;5008575;28;20566;-75
2022/08/07 11:40:30;;;;;;;1.10;0.87;;;28.90;77.90;;;;;;5001675;28;20455;-76
2022/08/07 11:43:05;;;;;;;1.87;1.13;;;29.20;77.40;;;;;;4997560;28;20895;-75
2022/08/07 11:45:45;;;;;;;3.07;1.10;;;29.20;77.40;;;;;;5004221;28;20450;-75
2022/08/07 11:48:29;;;;;;;1.40;1.10;;;29.10;76.90;;;;;;5001054;28;20443;-75
2022/08/07 11:51:12;;;;;;;6.87;1.73;;;29.20;77.50;;;;;;5002517;28;20478;-73
2022/08/07 11:53:50;;;;;;;1.73;1.00;;;29.20;77.40;;;;;;4997168;28;20860;-73
2022/08/07 11:56:33;;;;;;;1.07;0.80;;;29.00;75.20;;;;;;5002447;28;20532;-71
2022/08/07 11:59:15;;;;;;;1.20;0.90;;;28.90;76.90;;;;;;5004285;28;20438;-73
2022/08/07 12:01:51;;;;;;;1.40;1.00;;;28.70;75.20;;;;;;5003434;28;20471;-72
2022/08/07 12:04:42;;;;;;;1.77;1.20;;;28.80;76.30;;;;;;5000929;28;20487;-71
2022/08/07 12:07:17;;;;;;;1.10;1.00;;;28.70;76.50;;;;;;5003854;28;20959;-72
2022/08/07 12:09:50;;;;;;;1.20;1.00;;;28.80;76.90;;;;;;5002484;28;20513;-72
2022/08/07 12:12:22;;;;;;;1.30;1.20;;;28.80;75.50;;;;;;5005692;28;20889;-73
2022/08/07 12:15:01;;;;;;;2.00;1.30;;;28.90;75.70;;;;;;5002902;28;20442;-76
2022/08/07 12:17:36;;;;;;;3.60;1.20;;;29.20;76.20;;;;;;5000346;28;20450;-77
2022/08/07 12:20:11;;;;;;;1.65;1.10;;;29.30;74.60;;;;;;5003151;28;20508;-78
2022/08/07 12:22:46;;;;;;;2.25;1.30;;;29.40;73.90;;;;;;4996201;28;20507;-78
2022/08/07 12:28:17;;;;;;;3.05;1.00;;;29.30;73.30;;;;;;4986614;28;20827;-77
2022/08/07 12:30:49;;;;;;;2.17;0.97;;;29.00;72.50;;;;;;5000999;28;20737;-76
2022/08/07 12:33:19;;;;;;;7.80;4.28;;;28.70;72.90;;;;;;5003770;28;20509;-76
2022/08/07 12:35:50;;;;;;;61.30;40.20;;;28.70;72.50;;;;;;5011783;28;20443;-75
2022/08/07 12:38:18;;;;;;;15.37;9.00;;;28.60;75.80;;;;;;5007095;28;20610;-78
2022/08/07 12:41:59;;;;;;;3.30;2.30;;;28.90;73.30;;;;;;5079266;28;20813;-73
2022/08/07 12:44:26;;;;;;;2.67;1.42;;;29.20;74.70;;;;;;5069014;28;20910;-75
2022/08/07 12:47:09;;;;;;;1.50;1.20;;;29.50;73.50;;;;;;5074397;28;20294;-77
2022/08/07 12:49:42;;;;;;;3.00;1.73;;;29.70;71.70;;;;;;5073842;28;20512;-77
2022/08/07 12:52:13;;;;;;;2.70;1.30;;;29.60;72.90;;;;;;5081225;28;20529;-76
2022/08/07 12:54:52;;;;;;;1.80;1.10;;;29.60;71.50;;;;;;5070973;28;20911;-76
2022/08/07 12:57:24;;;;;;;1.70;1.07;;;29.30;72.00;;;;;;5072355;28;20450;-77
2022/08/07 12:59:55;;;;;;;2.40;1.10;;;29.30;72.90;;;;;;5071643;28;20455;-75
2022/08/07 13:02:41;;;;;;;1.40;1.00;;;29.30;71.60;;;;;;5080765;28;20985;-75
2022/08/07 13:05:25;;;;;;;1.93;1.10;;;29.10;70.90;;;;;;5080339;28;20447;-76
2022/08/07 13:08:05;;;;;;;2.17;0.90;;;29.00;72.60;;;;;;5079670;28;20448;-76
2022/08/07 13:10:49;;;;;;;4.40;1.20;;;29.00;73.50;;;;;;5079695;28;20488;-75
2022/08/07 13:13:34;;;;;;;3.33;1.20;;;29.30;72.90;;;;;;5068363;28;20440;-72
2022/08/07 13:16:10;;;;;;;1.73;1.40;;;29.50;71.60;;;;;;5069137;28;20852;-71
2022/08/07 13:18:46;;;;;;;1.80;0.87;;;29.40;70.90;;;;;;5076664;28;20448;-74
2022/08/07 13:21:17;;;;;;;1.83;1.17;;;29.40;70.90;;;;;;5067453;28;20912;-73